ディスパッチャーの航空気象情報

運航管理者が航空に関する気象情報サイトを集めました。 フライト前に天気チェックに。ディスパッチャーになりたい人に。
上記の広告は1ヶ月以上更新のないブログに表示されています。
新しい記事を書く事で広告が消せます。
全国的に晴天をもたらした高気圧は、中心が日本の東へ離れるが、引き続き西に勢力を残す。
このため、東北から近畿にかけては、日中いっぱい晴天が続く。
北海道や中国・四国地方と九州は、西から近づいてくる低気圧や前線の影響で、天気は下り坂。
九州は、夜になって雨や雷雨となり、そのほかも所によって雨が降り出し、しだいに南よりの風が強まる。
25日も、全国的に気温が高く、昼間は各地で季節外れの暖かさに。

by 天気のツボ

25日は夜半すぎより、西から近づく低気圧で天気は下り坂。
こういう時は、福岡、関西、名古屋、羽田と
TAFを見るのもおもしろいですね。
まずは、福岡だけでもどうぞ。

RJFF 241448Z 2415/2518 15007KT CAVOK
BECMG 2500/2503 16017KT
TEMPO 2503/2515 17022G35KT
TEMPO 2515/2518 17022G35KT 4000 SHRA BR

天気・気象学のホームページをチェック
コメント
この記事へのコメント
コメントを投稿する
URL:
Comment:
Pass:
秘密: 管理者にだけ表示を許可する
 
トラックバック
この記事のトラックバックURL
http://wxdisp.blog113.fc2.com/tb.php/19-e4fa2b0f
この記事にトラックバックする(FC2ブログユーザー)
この記事へのトラックバック
上記広告は1ヶ月以上更新のないブログに表示されています。新しい記事を書くことで広告を消せます。